sensor_id;sensor_type;location;lat;lon;timestamp;pressure;altitude;pressure_sealevel;temperature;humidity
27210;BME280;14721;42.668;23.386;2022-12-07T00:01:23;95329.66;;;6.28;97.29
27210;BME280;14721;42.668;23.386;2022-12-07T00:03:50;95339.66;;;6.38;97.20
27210;BME280;14721;42.668;23.386;2022-12-07T00:06:17;95339.56;;;6.40;97.73
27210;BME280;14721;42.668;23.386;2022-12-07T00:08:44;95343.00;;;6.42;97.74
27210;BME280;14721;42.668;23.386;2022-12-07T00:11:16;95341.53;;;6.52;98.14
27210;BME280;14721;42.668;23.386;2022-12-07T00:13:43;95323.03;;;6.50;97.41
27210;BME280;14721;42.668;23.386;2022-12-07T00:16:11;95334.47;;;6.66;96.95
27210;BME280;14721;42.668;23.386;2022-12-07T00:18:38;95331.09;;;6.78;96.46
27210;BME280;14721;42.668;23.386;2022-12-07T00:21:08;95321.91;;;6.84;95.39
27210;BME280;14721;42.668;23.386;2022-12-07T00:23:34;95325.88;;;6.91;95.08
27210;BME280;14721;42.668;23.386;2022-12-07T00:26:07;95328.72;;;6.88;95.04
27210;BME280;14721;42.668;23.386;2022-12-07T00:28:34;95337.00;;;6.97;94.79
27210;BME280;14721;42.668;23.386;2022-12-07T00:31:09;95334.06;;;7.02;94.45
27210;BME280;14721;42.668;23.386;2022-12-07T00:33:35;95329.63;;;7.02;94.10
27210;BME280;14721;42.668;23.386;2022-12-07T00:36:03;95323.72;;;6.97;94.38
27210;BME280;14721;42.668;23.386;2022-12-07T00:38:32;95334.84;;;7.04;94.06
27210;BME280;14721;42.668;23.386;2022-12-07T00:41:00;95342.47;;;6.80;94.23
27210;BME280;14721;42.668;23.386;2022-12-07T00:43:27;95340.84;;;6.78;94.75
27210;BME280;14721;42.668;23.386;2022-12-07T00:45:53;95344.16;;;6.67;95.18
27210;BME280;14721;42.668;23.386;2022-12-07T00:48:21;95333.09;;;6.59;95.70
27210;BME280;14721;42.668;23.386;2022-12-07T00:50:46;95307.00;;;6.52;95.99
27210;BME280;14721;42.668;23.386;2022-12-07T00:53:13;95328.75;;;6.58;95.90
27210;BME280;14721;42.668;23.386;2022-12-07T00:55:40;95328.94;;;6.55;96.63
27210;BME280;14721;42.668;23.386;2022-12-07T00:58:06;95317.53;;;6.53;96.94
27210;BME280;14721;42.668;23.386;2022-12-07T01:00:31;95318.69;;;6.49;96.91
27210;BME280;14721;42.668;23.386;2022-12-07T01:02:58;95319.00;;;6.59;97.69
27210;BME280;14721;42.668;23.386;2022-12-07T01:05:23;95321.59;;;6.74;97.32
27210;BME280;14721;42.668;23.386;2022-12-07T01:07:49;95309.34;;;6.72;96.30
27210;BME280;14721;42.668;23.386;2022-12-07T01:10:14;95322.84;;;6.83;96.29
27210;BME280;14721;42.668;23.386;2022-12-07T01:12:40;95321.63;;;6.88;95.94
27210;BME280;14721;42.668;23.386;2022-12-07T01:15:12;95322.31;;;6.92;95.45
27210;BME280;14721;42.668;23.386;2022-12-07T01:17:40;95325.53;;;6.97;95.47
27210;BME280;14721;42.668;23.386;2022-12-07T01:20:07;95321.75;;;7.01;95.30
27210;BME280;14721;42.668;23.386;2022-12-07T01:22:40;95309.41;;;6.86;95.05
27210;BME280;14721;42.668;23.386;2022-12-07T01:25:10;95315.06;;;6.80;95.11
27210;BME280;14721;42.668;23.386;2022-12-07T01:27:38;95320.84;;;6.72;95.72
27210;BME280;14721;42.668;23.386;2022-12-07T01:30:05;95307.16;;;6.64;96.14
27210;BME280;14721;42.668;23.386;2022-12-07T01:32:37;95306.19;;;6.51;96.02
27210;BME280;14721;42.668;23.386;2022-12-07T01:35:02;95309.75;;;6.50;97.07
27210;BME280;14721;42.668;23.386;2022-12-07T01:37:34;95306.84;;;6.55;97.29
27210;BME280;14721;42.668;23.386;2022-12-07T01:39:59;95311.22;;;6.56;97.29
27210;BME280;14721;42.668;23.386;2022-12-07T01:42:28;95302.94;;;6.46;97.32
27210;BME280;14721;42.668;23.386;2022-12-07T01:47:51;95301.41;;;6.42;97.58
27210;BME280;14721;42.668;23.386;2022-12-07T01:50:20;95306.19;;;6.51;97.90
27210;BME280;14721;42.668;23.386;2022-12-07T01:52:50;95308.19;;;6.62;97.68
27210;BME280;14721;42.668;23.386;2022-12-07T01:55:17;95297.25;;;6.52;97.47
27210;BME280;14721;42.668;23.386;2022-12-07T01:57:49;95294.66;;;6.66;97.54
27210;BME280;14721;42.668;23.386;2022-12-07T02:00:17;95288.63;;;6.78;97.26
27210;BME280;14721;42.668;23.386;2022-12-07T02:02:53;95296.22;;;6.84;96.35
27210;BME280;14721;42.668;23.386;2022-12-07T02:05:23;95282.34;;;6.79;95.84
27210;BME280;14721;42.668;23.386;2022-12-07T02:07:51;95276.84;;;6.82;95.80
27210;BME280;14721;42.668;23.386;2022-12-07T02:10:24;95267.06;;;6.69;95.81
27210;BME280;14721;42.668;23.386;2022-12-07T02:12:59;95281.00;;;6.43;96.10
27210;BME280;14721;42.668;23.386;2022-12-07T02:15:36;95287.53;;;6.37;97.16
27210;BME280;14721;42.668;23.386;2022-12-07T02:18:20;95280.81;;;6.32;97.55
27210;BME280;14721;42.668;23.386;2022-12-07T02:29:18;95277.19;;;6.33;98.25
27210;BME280;14721;42.668;23.386;2022-12-07T02:31:55;95274.97;;;6.41;98.22
27210;BME280;14721;42.668;23.386;2022-12-07T02:34:53;95275.72;;;6.43;98.00
27210;BME280;14721;42.668;23.386;2022-12-07T02:40:28;95264.00;;;6.61;97.63
27210;BME280;14721;42.668;23.386;2022-12-07T02:43:04;95271.81;;;6.78;96.75
27210;BME280;14721;42.668;23.386;2022-12-07T02:45:31;95269.19;;;6.92;96.33
27210;BME280;14721;42.668;23.386;2022-12-07T02:48:02;95279.69;;;6.79;95.85
27210;BME280;14721;42.668;23.386;2022-12-07T02:50:37;95271.13;;;6.60;95.95
27210;BME280;14721;42.668;23.386;2022-12-07T02:53:03;95275.16;;;6.52;96.30
27210;BME280;14721;42.668;23.386;2022-12-07T02:55:37;95275.16;;;6.52;96.44
27210;BME280;14721;42.668;23.386;2022-12-07T02:58:32;95276.56;;;6.43;96.90
27210;BME280;14721;42.668;23.386;2022-12-07T03:01:07;95270.22;;;6.16;97.92
27210;BME280;14721;42.668;23.386;2022-12-07T03:03:37;95252.44;;;6.18;98.14
27210;BME280;14721;42.668;23.386;2022-12-07T03:09:05;95259.69;;;6.15;98.72
27210;BME280;14721;42.668;23.386;2022-12-07T03:11:44;95228.75;;;6.00;98.40
27210;BME280;14721;42.668;23.386;2022-12-07T03:14:34;95251.84;;;6.13;98.80
27210;BME280;14721;42.668;23.386;2022-12-07T03:17:10;95250.56;;;6.05;98.47
27210;BME280;14721;42.668;23.386;2022-12-07T03:19:39;95246.34;;;6.16;98.72
27210;BME280;14721;42.668;23.386;2022-12-07T03:22:13;95251.66;;;6.16;99.30
27210;BME280;14721;42.668;23.386;2022-12-07T03:24:43;95240.16;;;6.31;98.84
27210;BME280;14721;42.668;23.386;2022-12-07T03:27:14;95242.53;;;6.36;98.48
27210;BME280;14721;42.668;23.386;2022-12-07T03:29:48;95243.56;;;6.33;97.77
27210;BME280;14721;42.668;23.386;2022-12-07T03:35:04;95247.97;;;6.48;97.46
27210;BME280;14721;42.668;23.386;2022-12-07T03:37:37;95252.72;;;6.57;96.68
27210;BME280;14721;42.668;23.386;2022-12-07T03:42:33;95260.97;;;6.53;95.44
27210;BME280;14721;42.668;23.386;2022-12-07T03:45:01;95250.47;;;6.36;95.82
27210;BME280;14721;42.668;23.386;2022-12-07T03:47:46;95244.03;;;6.26;95.45
27210;BME280;14721;42.668;23.386;2022-12-07T03:52:55;95242.63;;;6.05;97.26
27210;BME280;14721;42.668;23.386;2022-12-07T03:55:28;95253.16;;;5.91;97.70
27210;BME280;14721;42.668;23.386;2022-12-07T03:57:59;95250.84;;;5.85;98.72
27210;BME280;14721;42.668;23.386;2022-12-07T04:00:26;95243.38;;;5.75;99.68
27210;BME280;14721;42.668;23.386;2022-12-07T04:02:52;95244.44;;;5.73;99.97
27210;BME280;14721;42.668;23.386;2022-12-07T04:05:19;95231.19;;;5.57;100.00
27210;BME280;14721;42.668;23.386;2022-12-07T04:07:45;95222.78;;;5.65;100.00
27210;BME280;14721;42.668;23.386;2022-12-07T04:10:11;95251.53;;;5.88;100.00
27210;BME280;14721;42.668;23.386;2022-12-07T04:12:38;95239.13;;;5.89;100.00
27210;BME280;14721;42.668;23.386;2022-12-07T04:15:04;95248.19;;;6.00;100.00
27210;BME280;14721;42.668;23.386;2022-12-07T04:17:31;95243.09;;;6.11;99.81
27210;BME280;14721;42.668;23.386;2022-12-07T04:19:57;95238.13;;;6.21;98.78
27210;BME280;14721;42.668;23.386;2022-12-07T04:22:22;95240.00;;;6.19;98.56
27210;BME280;14721;42.668;23.386;2022-12-07T04:24:48;95232.66;;;6.08;98.54
27210;BME280;14721;42.668;23.386;2022-12-07T04:27:13;95235.72;;;5.87;98.05
27210;BME280;14721;42.668;23.386;2022-12-07T04:29:39;95249.47;;;5.77;98.58
27210;BME280;14721;42.668;23.386;2022-12-07T04:32:04;95246.22;;;5.72;98.83
27210;BME280;14721;42.668;23.386;2022-12-07T04:34:30;95251.69;;;5.69;99.38
27210;BME280;14721;42.668;23.386;2022-12-07T04:36:56;95246.81;;;5.62;99.83
27210;BME280;14721;42.668;23.386;2022-12-07T04:39:28;95258.72;;;5.55;100.00
27210;BME280;14721;42.668;23.386;2022-12-07T04:41:55;95244.09;;;5.32;100.00
27210;BME280;14721;42.668;23.386;2022-12-07T04:44:21;95238.19;;;5.27;100.00
27210;BME280;14721;42.668;23.386;2022-12-07T04:46:50;95243.72;;;5.23;100.00
27210;BME280;14721;42.668;23.386;2022-12-07T04:49:16;95256.22;;;5.36;100.00
27210;BME280;14721;42.668;23.386;2022-12-07T04:51:43;95258.09;;;5.34;100.00
27210;BME280;14721;42.668;23.386;2022-12-07T04:54:09;95258.34;;;5.30;100.00
27210;BME280;14721;42.668;23.386;2022-12-07T04:56:37;95268.44;;;5.39;100.00
27210;BME280;14721;42.668;23.386;2022-12-07T04:59:04;95249.53;;;5.45;100.00
27210;BME280;14721;42.668;23.386;2022-12-07T05:01:29;95265.72;;;5.56;100.00
27210;BME280;14721;42.668;23.386;2022-12-07T05:03:55;95253.56;;;5.36;100.00
27210;BME280;14721;42.668;23.386;2022-12-07T05:06:21;95256.50;;;5.47;100.00
27210;BME280;14721;42.668;23.386;2022-12-07T05:08:47;95252.28;;;5.59;100.00
27210;BME280;14721;42.668;23.386;2022-12-07T05:11:14;95257.00;;;5.69;100.00
27210;BME280;14721;42.668;23.386;2022-12-07T05:13:59;95267.78;;;5.66;100.00
27210;BME280;14721;42.668;23.386;2022-12-07T05:16:25;95264.53;;;5.46;99.63
27210;BME280;14721;42.668;23.386;2022-12-07T05:18:52;95256.56;;;5.30;100.00
27210;BME280;14721;42.668;23.386;2022-12-07T05:21:18;95268.84;;;5.16;100.00
27210;BME280;14721;42.668;23.386;2022-12-07T05:23:45;95249.81;;;4.77;100.00
27210;BME280;14721;42.668;23.386;2022-12-07T05:26:11;95258.56;;;4.94;100.00
27210;BME280;14721;42.668;23.386;2022-12-07T05:28:39;95253.00;;;4.99;100.00
27210;BME280;14721;42.668;23.386;2022-12-07T05:31:06;95251.56;;;4.93;100.00
27210;BME280;14721;42.668;23.386;2022-12-07T05:33:32;95255.56;;;5.00;100.00
27210;BME280;14721;42.668;23.386;2022-12-07T05:35:58;95255.06;;;4.94;100.00
27210;BME280;14721;42.668;23.386;2022-12-07T05:38:24;95261.66;;;5.02;100.00
27210;BME280;14721;42.668;23.386;2022-12-07T05:40:50;95262.09;;;5.10;100.00
27210;BME280;14721;42.668;23.386;2022-12-07T05:43:17;95255.19;;;5.23;100.00
27210;BME280;14721;42.668;23.386;2022-12-07T05:45:43;95259.63;;;5.23;100.00
27210;BME280;14721;42.668;23.386;2022-12-07T05:48:08;95245.50;;;5.22;100.00
27210;BME280;14721;42.668;23.386;2022-12-07T05:50:34;95252.97;;;5.31;100.00
27210;BME280;14721;42.668;23.386;2022-12-07T05:53:01;95254.34;;;5.54;100.00
27210;BME280;14721;42.668;23.386;2022-12-07T05:55:28;95248.25;;;5.67;100.00
27210;BME280;14721;42.668;23.386;2022-12-07T05:57:54;95248.78;;;5.74;100.00
27210;BME280;14721;42.668;23.386;2022-12-07T06:00:38;95251.63;;;5.87;100.00
27210;BME280;14721;42.668;23.386;2022-12-07T06:03:04;95244.50;;;5.87;100.00
27210;BME280;14721;42.668;23.386;2022-12-07T06:05:29;95247.41;;;5.98;100.00
27210;BME280;14721;42.668;23.386;2022-12-07T06:07:55;95253.59;;;5.99;99.83
27210;BME280;14721;42.668;23.386;2022-12-07T06:10:21;95250.56;;;6.05;99.23
27210;BME280;14721;42.668;23.386;2022-12-07T06:12:47;95248.09;;;6.02;99.33
27210;BME280;14721;42.668;23.386;2022-12-07T06:15:12;95242.63;;;6.05;98.81
27210;BME280;14721;42.668;23.386;2022-12-07T06:17:40;95246.34;;;6.16;98.49
27210;BME280;14721;42.668;23.386;2022-12-07T06:20:06;95236.09;;;6.10;98.40
27210;BME280;14721;42.668;23.386;2022-12-07T06:22:33;95259.25;;;6.22;98.10
27210;BME280;14721;42.668;23.386;2022-12-07T06:24:58;95257.66;;;6.34;97.65
27210;BME280;14721;42.668;23.386;2022-12-07T06:27:24;95254.75;;;6.38;97.27
27210;BME280;14721;42.668;23.386;2022-12-07T06:29:49;95252.69;;;6.43;97.11
27210;BME280;14721;42.668;23.386;2022-12-07T06:32:16;95267.38;;;6.49;96.50
27210;BME280;14721;42.668;23.386;2022-12-07T06:34:42;95253.19;;;6.50;96.98
27210;BME280;14721;42.668;23.386;2022-12-07T06:37:08;95254.47;;;6.43;96.94
27210;BME280;14721;42.668;23.386;2022-12-07T06:39:34;95262.84;;;6.51;96.84
27210;BME280;14721;42.668;23.386;2022-12-07T06:41:59;95266.47;;;6.64;96.55
27210;BME280;14721;42.668;23.386;2022-12-07T06:44:25;95267.84;;;6.71;95.92
27210;BME280;14721;42.668;23.386;2022-12-07T06:46:51;95265.03;;;6.58;96.29
27210;BME280;14721;42.668;23.386;2022-12-07T06:49:17;95252.22;;;6.51;95.98
27210;BME280;14721;42.668;23.386;2022-12-07T06:51:43;95264.81;;;6.47;96.08
27210;BME280;14721;42.668;23.386;2022-12-07T06:54:16;95272.97;;;6.44;96.43
27210;BME280;14721;42.668;23.386;2022-12-07T06:56:42;95268.38;;;6.32;97.18
27210;BME280;14721;42.668;23.386;2022-12-07T06:59:09;95251.28;;;6.22;97.69
27210;BME280;14721;42.668;23.386;2022-12-07T07:01:35;95273.94;;;6.28;97.84
27210;BME280;14721;42.668;23.386;2022-12-07T07:04:01;95274.81;;;6.28;98.57
27210;BME280;14721;42.668;23.386;2022-12-07T07:06:27;95274.47;;;6.34;98.94
27210;BME280;14721;42.668;23.386;2022-12-07T07:08:52;95268.19;;;6.35;99.07
27210;BME280;14721;42.668;23.386;2022-12-07T07:11:18;95271.34;;;6.42;98.89
27210;BME280;14721;42.668;23.386;2022-12-07T07:13:44;95252.09;;;6.38;98.54
27210;BME280;14721;42.668;23.386;2022-12-07T07:16:10;95272.38;;;6.69;98.19
27210;BME280;14721;42.668;23.386;2022-12-07T07:18:36;95271.16;;;6.88;97.80
27210;BME280;14721;42.668;23.386;2022-12-07T07:21:02;95272.03;;;7.03;96.93
27210;BME280;14721;42.668;23.386;2022-12-07T07:23:29;95283.34;;;7.20;95.60
27210;BME280;14721;42.668;23.386;2022-12-07T07:25:55;95279.75;;;7.35;94.55
27210;BME280;14721;42.668;23.386;2022-12-07T07:28:21;95282.75;;;7.43;93.62
27210;BME280;14721;42.668;23.386;2022-12-07T07:30:47;95276.31;;;7.33;92.31
27210;BME280;14721;42.668;23.386;2022-12-07T07:33:12;95279.81;;;7.20;91.71
27210;BME280;14721;42.668;23.386;2022-12-07T07:35:38;95288.16;;;7.14;92.91
27210;BME280;14721;42.668;23.386;2022-12-07T07:38:05;95291.13;;;7.23;93.25
27210;BME280;14721;42.668;23.386;2022-12-07T07:40:37;95286.94;;;7.19;92.94
27210;BME280;14721;42.668;23.386;2022-12-07T07:43:04;95291.78;;;7.13;92.69
27210;BME280;14721;42.668;23.386;2022-12-07T07:45:30;95278.19;;;7.03;93.28
27210;BME280;14721;42.668;23.386;2022-12-07T07:47:56;95287.97;;;7.17;93.26
27210;BME280;14721;42.668;23.386;2022-12-07T07:50:21;95289.22;;;7.25;92.90
27210;BME280;14721;42.668;23.386;2022-12-07T07:52:47;95284.88;;;7.38;92.62
27210;BME280;14721;42.668;23.386;2022-12-07T07:55:13;95258.34;;;7.51;91.83
27210;BME280;14721;42.668;23.386;2022-12-07T07:57:39;95274.53;;;7.74;91.25
27210;BME280;14721;42.668;23.386;2022-12-07T08:00:08;95277.03;;;8.04;90.03
27210;BME280;14721;42.668;23.386;2022-12-07T08:02:34;95272.50;;;8.19;89.44
27210;BME280;14721;42.668;23.386;2022-12-07T08:05:00;95278.03;;;8.42;87.65
27210;BME280;14721;42.668;23.386;2022-12-07T08:07:27;95267.78;;;8.63;86.76
27210;BME280;14721;42.668;23.386;2022-12-07T08:09:53;95275.78;;;8.63;85.78
27210;BME280;14721;42.668;23.386;2022-12-07T08:12:19;95281.06;;;8.50;85.91
27210;BME280;14721;42.668;23.386;2022-12-07T08:14:45;95280.69;;;8.30;87.04
27210;BME280;14721;42.668;23.386;2022-12-07T08:17:11;95271.75;;;8.17;87.29
27210;BME280;14721;42.668;23.386;2022-12-07T08:19:37;95264.56;;;8.05;88.15
27210;BME280;14721;42.668;23.386;2022-12-07T08:22:03;95270.28;;;7.99;88.58
27210;BME280;14721;42.668;23.386;2022-12-07T08:24:33;95277.13;;;8.03;88.57
27210;BME280;14721;42.668;23.386;2022-12-07T08:26:58;95266.69;;;8.00;89.01
27210;BME280;14721;42.668;23.386;2022-12-07T08:29:26;95275.88;;;8.08;89.01
27210;BME280;14721;42.668;23.386;2022-12-07T08:31:53;95273.47;;;8.18;88.91
27210;BME280;14721;42.668;23.386;2022-12-07T08:34:18;95278.75;;;8.32;88.79
27210;BME280;14721;42.668;23.386;2022-12-07T08:36:44;95266.69;;;8.53;87.48
27210;BME280;14721;42.668;23.386;2022-12-07T08:39:09;95268.47;;;8.91;85.91
27210;BME280;14721;42.668;23.386;2022-12-07T08:41:36;95258.69;;;9.17;84.51
27210;BME280;14721;42.668;23.386;2022-12-07T08:44:03;95272.09;;;9.40;83.27
27210;BME280;14721;42.668;23.386;2022-12-07T08:46:33;95254.50;;;9.25;81.72
27210;BME280;14721;42.668;23.386;2022-12-07T08:49:09;95256.22;;;9.14;82.57
27210;BME280;14721;42.668;23.386;2022-12-07T08:51:38;95266.97;;;9.00;83.04
27210;BME280;14721;42.668;23.386;2022-12-07T08:54:06;95252.56;;;9.02;83.32
27210;BME280;14721;42.668;23.386;2022-12-07T08:56:33;95251.00;;;9.00;83.05
27210;BME280;14721;42.668;23.386;2022-12-07T08:58:59;95240.97;;;8.91;83.54
27210;BME280;14721;42.668;23.386;2022-12-07T09:01:25;95244.16;;;9.08;83.72
27210;BME280;14721;42.668;23.386;2022-12-07T09:03:52;95245.25;;;9.18;83.41
27210;BME280;14721;42.668;23.386;2022-12-07T09:06:18;95243.50;;;9.30;83.28
27210;BME280;14721;42.668;23.386;2022-12-07T09:08:47;95230.91;;;9.44;82.07
27210;BME280;14721;42.668;23.386;2022-12-07T09:11:15;95239.47;;;9.73;80.82
27210;BME280;14721;42.668;23.386;2022-12-07T09:13:40;95246.81;;;9.95;80.42
27210;BME280;14721;42.668;23.386;2022-12-07T09:16:06;95236.13;;;10.07;79.00
27210;BME280;14721;42.668;23.386;2022-12-07T09:18:32;95233.00;;;10.13;78.51
27210;BME280;14721;42.668;23.386;2022-12-07T09:20:59;95230.78;;;10.07;78.27
27210;BME280;14721;42.668;23.386;2022-12-07T09:23:25;95215.88;;;9.80;78.74
27210;BME280;14721;42.668;23.386;2022-12-07T09:25:50;95222.69;;;9.47;79.21
27210;BME280;14721;42.668;23.386;2022-12-07T09:28:16;95213.03;;;9.09;80.66
27210;BME280;14721;42.668;23.386;2022-12-07T09:30:46;95222.19;;;9.30;81.04
27210;BME280;14721;42.668;23.386;2022-12-07T09:33:12;95217.28;;;9.24;80.97
27210;BME280;14721;42.668;23.386;2022-12-07T09:35:38;95221.66;;;9.25;80.71
27210;BME280;14721;42.668;23.386;2022-12-07T09:38:03;95203.41;;;9.19;80.64
27210;BME280;14721;42.668;23.386;2022-12-07T09:40:29;95209.28;;;9.24;81.20
27210;BME280;14721;42.668;23.386;2022-12-07T09:42:55;95204.34;;;9.43;80.99
27210;BME280;14721;42.668;23.386;2022-12-07T09:45:29;95194.13;;;9.73;79.92
27210;BME280;14721;42.668;23.386;2022-12-07T09:47:58;95197.66;;;9.97;78.75
27210;BME280;14721;42.668;23.386;2022-12-07T09:50:28;95192.63;;;10.05;77.95
27210;BME280;14721;42.668;23.386;2022-12-07T09:53:17;95187.88;;;10.21;77.49
27210;BME280;14721;42.668;23.386;2022-12-07T09:55:41;95173.84;;;10.30;77.28
27210;BME280;14721;42.668;23.386;2022-12-07T09:58:26;95187.38;;;10.16;76.45
27210;BME280;14721;42.668;23.386;2022-12-07T10:00:56;95197.19;;;9.92;77.88
27210;BME280;14721;42.668;23.386;2022-12-07T10:03:25;95188.22;;;9.81;78.81
27210;BME280;14721;42.668;23.386;2022-12-07T10:05:52;95187.06;;;9.85;78.82
27210;BME280;14721;42.668;23.386;2022-12-07T10:08:18;95178.97;;;9.74;79.01
27210;BME280;14721;42.668;23.386;2022-12-07T10:10:48;95170.22;;;9.72;79.60
27210;BME280;14721;42.668;23.386;2022-12-07T10:13:19;95150.94;;;9.68;79.93
27210;BME280;14721;42.668;23.386;2022-12-07T10:15:57;95163.78;;;9.87;79.38
27210;BME280;14721;42.668;23.386;2022-12-07T10:23:30;95150.59;;;9.96;77.67
27210;BME280;14721;42.668;23.386;2022-12-07T10:25:56;95159.81;;;10.16;77.28
27210;BME280;14721;42.668;23.386;2022-12-07T10:28:30;95168.66;;;10.40;76.49
27210;BME280;14721;42.668;23.386;2022-12-07T10:31:02;95160.06;;;10.58;75.65
27210;BME280;14721;42.668;23.386;2022-12-07T10:36:33;95142.78;;;10.40;76.49
27210;BME280;14721;42.668;23.386;2022-12-07T10:39:13;95143.00;;;10.37;76.34
27210;BME280;14721;42.668;23.386;2022-12-07T10:41:58;95130.41;;;10.39;76.57
27210;BME280;14721;42.668;23.386;2022-12-07T10:44:30;95133.66;;;10.32;76.39
27210;BME280;14721;42.668;23.386;2022-12-07T11:00:53;95122.97;;;10.77;75.02
27210;BME280;14721;42.668;23.386;2022-12-07T11:11:51;95090.66;;;11.13;72.13
27210;BME280;14721;42.668;23.386;2022-12-07T11:14:33;95097.44;;;10.62;72.82
27210;BME280;14721;42.668;23.386;2022-12-07T11:17:15;95105.31;;;10.53;73.61
27210;BME280;14721;42.668;23.386;2022-12-07T11:25:16;95078.97;;;10.70;72.13
27210;BME280;14721;42.668;23.386;2022-12-07T11:33:46;95062.72;;;10.95;71.70
27210;BME280;14721;42.668;23.386;2022-12-07T11:36:33;95065.97;;;10.99;70.94
27210;BME280;14721;42.668;23.386;2022-12-07T11:41:48;95047.63;;;10.94;71.23
27210;BME280;14721;42.668;23.386;2022-12-07T11:47:07;95056.97;;;10.56;72.30
27210;BME280;14721;42.668;23.386;2022-12-07T11:49:47;95057.19;;;10.42;73.21
27210;BME280;14721;42.668;23.386;2022-12-07T11:58:04;95054.59;;;10.07;75.12
27210;BME280;14721;42.668;23.386;2022-12-07T12:00:33;95048.16;;;10.10;75.65
27210;BME280;14721;42.668;23.386;2022-12-07T12:03:12;95043.09;;;10.18;75.53
27210;BME280;14721;42.668;23.386;2022-12-07T12:05:39;95026.22;;;10.17;75.83
27210;BME280;14721;42.668;23.386;2022-12-07T12:08:21;95039.22;;;10.33;74.92
27210;BME280;14721;42.668;23.386;2022-12-07T12:16:57;95022.59;;;10.29;75.02
27210;BME280;14721;42.668;23.386;2022-12-07T12:24:38;95012.22;;;9.68;78.15
27210;BME280;14721;42.668;23.386;2022-12-07T12:27:15;95017.56;;;9.68;77.96
27210;BME280;14721;42.668;23.386;2022-12-07T12:29:43;95009.56;;;9.68;78.05
27210;BME280;14721;42.668;23.386;2022-12-07T12:32:21;95019.03;;;9.72;78.35
27210;BME280;14721;42.668;23.386;2022-12-07T12:37:46;95010.84;;;9.97;77.97
27210;BME280;14721;42.668;23.386;2022-12-07T12:42:53;94998.19;;;10.12;78.11
27210;BME280;14721;42.668;23.386;2022-12-07T12:45:29;94992.13;;;10.32;76.87
27210;BME280;14721;42.668;23.386;2022-12-07T12:48:29;94997.31;;;10.11;75.53
27210;BME280;14721;42.668;23.386;2022-12-07T12:50:48;94982.84;;;10.03;76.37
27210;BME280;14721;42.668;23.386;2022-12-07T12:55:49;94988.50;;;10.22;75.90
27210;BME280;14721;42.668;23.386;2022-12-07T12:58:29;94989.81;;;10.16;76.11
27210;BME280;14721;42.668;23.386;2022-12-07T13:01:33;94988.59;;;10.20;76.06
27210;BME280;14721;42.668;23.386;2022-12-07T13:04:26;94991.75;;;10.36;75.70
27210;BME280;14721;42.668;23.386;2022-12-07T13:06:53;94988.59;;;10.64;75.66
27210;BME280;14721;42.668;23.386;2022-12-07T13:09:34;94980.91;;;10.93;75.60
27210;BME280;14721;42.668;23.386;2022-12-07T13:12:05;94992.78;;;11.22;73.86
27210;BME280;14721;42.668;23.386;2022-12-07T13:14:51;94984.34;;;11.37;73.04
27210;BME280;14721;42.668;23.386;2022-12-07T13:20:04;94987.69;;;11.08;73.98
27210;BME280;14721;42.668;23.386;2022-12-07T13:27:30;94983.13;;;10.88;74.73
27210;BME280;14721;42.668;23.386;2022-12-07T13:29:56;94987.88;;;10.84;74.93
27210;BME280;14721;42.668;23.386;2022-12-07T13:32:28;94980.97;;;10.82;75.19
27210;BME280;14721;42.668;23.386;2022-12-07T13:34:55;94985.66;;;11.00;74.92
27210;BME280;14721;42.668;23.386;2022-12-07T13:37:28;94976.25;;;11.17;74.51
27210;BME280;14721;42.668;23.386;2022-12-07T13:40:15;94962.25;;;11.24;73.84
27210;BME280;14721;42.668;23.386;2022-12-07T13:42:44;94978.94;;;11.48;73.51
27210;BME280;14721;42.668;23.386;2022-12-07T13:45:31;94974.94;;;11.54;72.92
27210;BME280;14721;42.668;23.386;2022-12-07T13:48:36;94968.94;;;11.30;73.13
27210;BME280;14721;42.668;23.386;2022-12-07T13:51:27;94970.84;;;10.96;74.52
27210;BME280;14721;42.668;23.386;2022-12-07T13:54:00;94961.28;;;10.72;75.31
27210;BME280;14721;42.668;23.386;2022-12-07T13:56:32;94954.13;;;10.61;75.90
27210;BME280;14721;42.668;23.386;2022-12-07T13:58:58;94955.34;;;10.46;76.99
27210;BME280;14721;42.668;23.386;2022-12-07T14:01:25;94964.56;;;10.64;76.63
27210;BME280;14721;42.668;23.386;2022-12-07T14:03:50;94948.78;;;10.72;76.89
27210;BME280;14721;42.668;23.386;2022-12-07T14:06:23;94958.78;;;11.02;76.11
27210;BME280;14721;42.668;23.386;2022-12-07T14:09:19;94955.94;;;11.25;75.50
27210;BME280;14721;42.668;23.386;2022-12-07T14:11:47;94967.09;;;11.30;74.52
27210;BME280;14721;42.668;23.386;2022-12-07T14:14:19;94974.28;;;11.30;74.05
27210;BME280;14721;42.668;23.386;2022-12-07T14:19:48;94981.16;;;11.12;74.53
27210;BME280;14721;42.668;23.386;2022-12-07T14:22:31;94981.66;;;11.06;74.81
27210;BME280;14721;42.668;23.386;2022-12-07T14:27:47;94978.44;;;10.47;77.20
27210;BME280;14721;42.668;23.386;2022-12-07T14:30:18;94970.53;;;10.35;77.75
27210;BME280;14721;42.668;23.386;2022-12-07T14:32:44;94991.63;;;10.60;77.83
27210;BME280;14721;42.668;23.386;2022-12-07T14:35:16;94978.41;;;10.69;77.18
27210;BME280;14721;42.668;23.386;2022-12-07T14:37:46;94974.25;;;10.76;76.67
27210;BME280;14721;42.668;23.386;2022-12-07T14:40:32;94974.00;;;10.79;76.51
27210;BME280;14721;42.668;23.386;2022-12-07T14:43:04;94972.72;;;10.41;77.88
27210;BME280;14721;42.668;23.386;2022-12-07T14:45:30;94978.81;;;9.97;79.56
27210;BME280;14721;42.668;23.386;2022-12-07T14:48:02;94977.00;;;9.98;80.50
27210;BME280;14721;42.668;23.386;2022-12-07T14:50:27;94980.53;;;9.98;80.67
27210;BME280;14721;42.668;23.386;2022-12-07T14:53:01;94970.09;;;9.95;80.62
27210;BME280;14721;42.668;23.386;2022-12-07T14:55:31;94973.47;;;9.86;80.91
27210;BME280;14721;42.668;23.386;2022-12-07T14:57:58;94982.16;;;9.66;81.95
27210;BME280;14721;42.668;23.386;2022-12-07T15:00:26;94977.00;;;9.52;82.53
27210;BME280;14721;42.668;23.386;2022-12-07T15:02:54;94992.22;;;9.74;82.55